createdAt,value
2018-03-07T00:00:59.327Z,72.97
2018-03-07T00:03:26.844Z,66.83
2018-03-07T00:05:54.500Z,68.03
2018-03-07T00:08:22.260Z,69.17
2018-03-07T00:10:49.758Z,69.83
2018-03-07T00:13:17.479Z,65.00
2018-03-07T00:15:45.196Z,66.23
2018-03-07T00:18:12.703Z,69.67
2018-03-07T00:20:40.212Z,71.07
2018-03-07T00:23:07.875Z,68.80
2018-03-07T00:25:35.382Z,70.50
2018-03-07T00:28:02.891Z,70.10
2018-03-07T00:30:30.795Z,71.40
2018-03-07T00:32:58.303Z,72.10
2018-03-07T00:35:26.488Z,72.43
2018-03-07T00:37:54.159Z,70.27
2018-03-07T00:40:21.668Z,73.50
2018-03-07T00:42:49.419Z,72.50
2018-03-07T00:45:17.056Z,72.57
2018-03-07T00:47:44.637Z,73.00
2018-03-07T00:50:12.260Z,71.10
2018-03-07T00:52:39.772Z,72.30
2018-03-07T00:55:07.316Z,74.90
2018-03-07T00:57:34.823Z,71.90
2018-03-07T01:00:02.512Z,70.53
2018-03-07T01:02:30.034Z,71.80
2018-03-07T01:04:57.539Z,72.40
2018-03-07T01:07:25.038Z,71.77
2018-03-07T01:09:52.551Z,75.77
2018-03-07T01:12:20.153Z,71.13
2018-03-07T01:14:47.634Z,76.20
2018-03-07T01:17:15.216Z,67.97
2018-03-07T01:19:42.720Z,76.13
2018-03-07T01:22:10.239Z,72.03
2018-03-07T01:24:37.743Z,74.73
2018-03-07T01:27:05.261Z,73.53
2018-03-07T01:29:32.801Z,71.03
2018-03-07T01:32:00.414Z,73.57
2018-03-07T01:34:27.965Z,72.83
2018-03-07T01:36:55.635Z,75.73
2018-03-07T01:39:23.370Z,75.00
2018-03-07T01:41:50.888Z,72.70
2018-03-07T01:44:18.392Z,73.33
2018-03-07T01:46:45.930Z,74.93
2018-03-07T01:49:13.431Z,73.90
2018-03-07T01:51:52.940Z,74.00
2018-03-07T01:54:20.439Z,72.67
2018-03-07T01:56:48.172Z,71.50
2018-03-07T01:59:15.676Z,71.23
2018-03-07T02:01:43.184Z,73.67
2018-03-07T02:04:10.687Z,67.00
2018-03-07T02:06:38.306Z,74.37
2018-03-07T02:09:05.815Z,70.40
2018-03-07T02:11:33.328Z,74.67
2018-03-07T02:14:00.971Z,73.37
2018-03-07T02:16:28.482Z,69.10
2018-03-07T02:18:56.005Z,73.17
2018-03-07T02:21:23.652Z,77.10
2018-03-07T02:23:51.156Z,72.53
2018-03-07T02:26:18.659Z,74.77
2018-03-07T02:28:46.263Z,72.40
2018-03-07T02:31:16.691Z,74.93
2018-03-07T02:33:44.199Z,73.00
2018-03-07T02:36:23.663Z,73.83
2018-03-07T02:38:51.179Z,67.60
2018-03-07T02:41:18.718Z,76.47
2018-03-07T02:43:46.243Z,76.47
2018-03-07T02:46:13.858Z,74.47
2018-03-07T02:48:41.645Z,72.63
2018-03-07T02:51:09.179Z,74.00
2018-03-07T02:53:36.686Z,74.00
2018-03-07T02:56:04.299Z,74.20
2018-03-07T02:58:32.035Z,75.80
2018-03-07T03:00:59.542Z,72.47
2018-03-07T03:03:27.331Z,73.47
2018-03-07T03:05:54.852Z,71.53
2018-03-07T03:08:22.364Z,73.23
2018-03-07T03:13:23.586Z,72.80
2018-03-07T03:15:51.092Z,72.50
2018-03-07T03:18:18.778Z,76.40
2018-03-07T03:20:46.395Z,76.03
2018-03-07T03:23:14.952Z,71.60
2018-03-07T03:25:42.490Z,77.90
2018-03-07T03:28:10.943Z,76.40
2018-03-07T03:30:38.460Z,73.10
2018-03-07T03:33:05.998Z,75.53
2018-03-07T03:35:33.492Z,74.40
2018-03-07T03:38:01.233Z,75.97
2018-03-07T03:40:28.731Z,76.57
2018-03-07T03:42:56.252Z,76.67
2018-03-07T03:45:23.894Z,75.90
2018-03-07T03:47:51.391Z,78.00
2018-03-07T03:50:18.904Z,76.70
2018-03-07T03:52:46.422Z,75.00
2018-03-07T03:55:14.747Z,74.23
2018-03-07T03:57:42.275Z,75.90
2018-03-07T04:00:09.859Z,80.10
2018-03-07T04:02:37.373Z,72.87
2018-03-07T04:05:04.871Z,76.23
2018-03-07T04:07:32.380Z,80.00
2018-03-07T04:10:00.666Z,80.20
2018-03-07T04:12:28.735Z,76.93
2018-03-07T04:14:56.248Z,75.20
2018-03-07T04:17:23.868Z,78.43
2018-03-07T04:19:51.536Z,78.83
2018-03-07T04:22:19.146Z,77.23
2018-03-07T04:24:46.893Z,82.57
2018-03-07T04:27:14.655Z,78.90
2018-03-07T04:29:42.172Z,79.73
2018-03-07T04:32:09.676Z,78.17
2018-03-07T04:34:37.192Z,73.03
2018-03-07T04:37:04.751Z,80.63
2018-03-07T04:39:32.272Z,80.00
2018-03-07T04:42:00.172Z,77.53
2018-03-07T04:44:27.679Z,77.93
2018-03-07T04:46:55.192Z,75.60
2018-03-07T04:49:22.914Z,79.10
2018-03-07T04:51:50.443Z,83.93
2018-03-07T04:54:17.974Z,78.80
2018-03-07T04:56:45.486Z,83.47
2018-03-07T04:59:13.147Z,84.03
2018-03-07T05:01:40.765Z,80.37
2018-03-07T05:04:08.354Z,77.20
2018-03-07T05:06:35.861Z,81.90
2018-03-07T05:09:03.364Z,79.40
2018-03-07T05:11:30.878Z,82.70
2018-03-07T05:13:58.382Z,81.90
2018-03-07T05:16:25.938Z,83.30
2018-03-07T05:18:53.443Z,80.20
2018-03-07T05:21:21.148Z,85.80
2018-03-07T05:23:48.643Z,77.20
2018-03-07T05:26:16.161Z,82.17
2018-03-07T05:28:43.870Z,83.60
2018-03-07T05:31:11.388Z,84.97
2018-03-07T05:33:38.874Z,85.10
2018-03-07T05:36:07.170Z,84.20
2018-03-07T05:38:34.666Z,84.73
2018-03-07T05:41:02.202Z,86.07
2018-03-07T05:43:29.706Z,81.53
2018-03-07T05:45:57.234Z,86.63
2018-03-07T05:48:24.867Z,81.57
2018-03-07T05:50:52.465Z,85.37
2018-03-07T05:53:20.019Z,82.07
2018-03-07T05:55:47.785Z,88.13
2018-03-07T05:58:15.309Z,88.67
2018-03-07T06:00:44.048Z,87.07
2018-03-07T06:03:13.244Z,89.50
2018-03-07T06:05:41.048Z,89.23
2018-03-07T06:08:09.451Z,88.37
2018-03-07T06:10:36.952Z,88.57
2018-03-07T06:13:04.563Z,95.20
2018-03-07T06:15:32.168Z,91.17
2018-03-07T06:17:59.699Z,106.57
2018-03-07T06:20:27.491Z,101.67
2018-03-07T06:22:56.776Z,92.30
2018-03-07T06:25:24.278Z,91.20
2018-03-07T06:27:51.792Z,95.53
2018-03-07T06:30:19.460Z,96.13
2018-03-07T06:32:46.974Z,97.40
2018-03-07T06:35:14.496Z,95.20
2018-03-07T06:37:43.089Z,97.83
2018-03-07T06:40:10.592Z,99.53
2018-03-07T06:42:38.242Z,94.67
2018-03-07T06:45:05.741Z,92.40
2018-03-07T06:47:33.715Z,95.63
2018-03-07T06:50:01.260Z,96.67
2018-03-07T06:52:28.819Z,100.73
2018-03-07T06:54:56.322Z,99.97
2018-03-07T06:57:24.616Z,101.20
2018-03-07T06:59:52.269Z,163.77
2018-03-07T07:02:20.063Z,101.40
2018-03-07T07:04:47.827Z,98.30
2018-03-07T07:07:15.368Z,102.37
2018-03-07T07:09:43.372Z,96.93
2018-03-07T07:12:11.129Z,100.00
2018-03-07T07:14:38.783Z,100.63
2018-03-07T07:17:06.303Z,98.43
2018-03-07T07:19:34.633Z,96.33
2018-03-07T07:22:02.203Z,102.57
2018-03-07T07:24:29.715Z,99.90
2018-03-07T07:26:57.226Z,103.30
2018-03-07T07:29:24.755Z,100.97
2018-03-07T07:31:52.284Z,101.37
2018-03-07T07:34:19.805Z,98.00
2018-03-07T07:36:47.311Z,100.83
2018-03-07T07:39:15.331Z,103.60
2018-03-07T07:41:42.828Z,102.93
2018-03-07T07:44:10.344Z,105.10
2018-03-07T07:46:37.858Z,104.17
2018-03-07T07:49:05.368Z,105.50
2018-03-07T07:51:32.881Z,101.00
2018-03-07T07:54:00.673Z,104.27
2018-03-07T07:56:28.415Z,104.17
2018-03-07T07:58:56.181Z,102.53
2018-03-07T08:01:23.697Z,101.10
2018-03-07T08:03:51.400Z,103.23
2018-03-07T08:06:19.155Z,105.80
2018-03-07T08:08:46.680Z,104.57
2018-03-07T08:11:14.183Z,106.57
2018-03-07T08:13:41.716Z,101.77
2018-03-07T08:16:09.220Z,107.40
2018-03-07T08:18:36.738Z,106.63
2018-03-07T08:21:04.487Z,102.47
2018-03-07T08:23:31.988Z,102.50
2018-03-07T08:25:59.739Z,107.70
2018-03-07T08:28:27.244Z,104.80
2018-03-07T08:30:54.808Z,105.53
2018-03-07T08:33:22.323Z,102.13
2018-03-07T08:35:50.363Z,102.50
2018-03-07T08:38:17.871Z,103.50
2018-03-07T08:40:45.384Z,102.90
2018-03-07T08:43:13.007Z,108.03
2018-03-07T08:45:40.529Z,100.93
2018-03-07T08:48:08.042Z,102.87
2018-03-07T08:50:35.607Z,97.97
2018-03-07T08:53:03.295Z,101.17
2018-03-07T08:55:30.819Z,102.13
2018-03-07T08:57:58.580Z,102.43
2018-03-07T09:00:26.233Z,101.30
2018-03-07T09:02:53.736Z,101.37
2018-03-07T09:05:22.756Z,102.87
2018-03-07T09:07:50.882Z,102.83
2018-03-07T09:10:18.560Z,97.97
2018-03-07T09:12:46.312Z,100.67
2018-03-07T09:15:13.823Z,100.10
2018-03-07T09:17:41.376Z,101.00
2018-03-07T09:20:09.692Z,100.50
2018-03-07T09:22:37.423Z,102.47
2018-03-07T09:25:04.923Z,97.03
2018-03-07T09:27:32.592Z,101.37
2018-03-07T09:30:00.096Z,98.37
2018-03-07T09:32:27.611Z,102.13
2018-03-07T09:34:55.268Z,98.47
2018-03-07T09:37:22.779Z,97.20
2018-03-07T09:39:50.483Z,101.20
2018-03-07T09:42:18.003Z,95.83
2018-03-07T09:44:45.508Z,101.10
2018-03-07T09:47:13.180Z,104.43
2018-03-07T09:49:40.923Z,101.47
2018-03-07T09:52:08.699Z,98.03
2018-03-07T09:54:36.459Z,102.97
2018-03-07T09:57:03.983Z,100.27
2018-03-07T09:59:31.479Z,99.40
2018-03-07T10:01:59.159Z,101.10
2018-03-07T10:04:26.653Z,106.00
2018-03-07T10:06:54.118Z,97.10
2018-03-07T10:09:21.819Z,97.97
2018-03-07T10:11:49.330Z,98.80
2018-03-07T10:14:17.023Z,99.87
2018-03-07T10:16:44.536Z,105.50
2018-03-07T10:19:12.239Z,101.27
2018-03-07T10:21:39.754Z,100.40
2018-03-07T10:24:07.257Z,104.53
2018-03-07T10:26:34.921Z,101.33
2018-03-07T10:29:02.787Z,105.33
2018-03-07T10:31:30.296Z,99.07
2018-03-07T10:33:58.824Z,103.43
2018-03-07T10:36:26.333Z,104.77
2018-03-07T10:38:54.303Z,101.07
2018-03-07T10:41:21.816Z,91.57
2018-03-07T10:43:49.318Z,97.93
2018-03-07T10:46:16.823Z,96.07
2018-03-07T10:48:44.356Z,90.70
2018-03-07T10:51:11.848Z,92.90
2018-03-07T10:53:39.347Z,94.30
2018-03-07T10:56:06.855Z,93.57
2018-03-07T10:58:34.626Z,91.43
2018-03-07T11:01:02.128Z,89.87
2018-03-07T11:03:29.916Z,89.67
2018-03-07T11:05:57.422Z,94.53
2018-03-07T11:08:25.016Z,92.87
2018-03-07T11:10:52.515Z,93.27
2018-03-07T11:13:20.037Z,89.53
2018-03-07T11:15:47.567Z,89.30
2018-03-07T11:18:15.979Z,84.77
2018-03-07T11:20:43.680Z,87.30
2018-03-07T11:23:11.204Z,91.77
2018-03-07T11:25:39.097Z,91.83
2018-03-07T11:28:06.639Z,90.87
2018-03-07T11:30:34.314Z,93.10
2018-03-07T11:33:01.829Z,80.87
2018-03-07T11:35:29.388Z,81.40
2018-03-07T11:37:57.775Z,79.77
2018-03-07T11:40:25.372Z,80.10
2018-03-07T11:42:52.928Z,83.93
2018-03-07T11:45:20.589Z,82.73
2018-03-07T11:47:48.917Z,78.10
2018-03-07T11:50:16.456Z,81.37
2018-03-07T11:52:43.957Z,84.50
2018-03-07T11:55:11.468Z,82.27
2018-03-07T11:57:38.994Z,80.30
2018-03-07T12:00:06.675Z,80.43
2018-03-07T12:02:34.322Z,82.27
2018-03-07T12:05:01.840Z,81.50
2018-03-07T12:07:29.502Z,82.07
2018-03-07T12:09:57.012Z,79.23
2018-03-07T12:12:24.526Z,79.87
2018-03-07T12:14:52.039Z,78.73
2018-03-07T12:17:19.655Z,83.80
2018-03-07T12:19:47.310Z,79.90
2018-03-07T12:22:14.834Z,81.37
2018-03-07T12:24:42.341Z,81.40
2018-03-07T12:27:09.943Z,82.07
2018-03-07T12:29:38.492Z,78.53
2018-03-07T12:32:06.016Z,73.80
2018-03-07T12:34:33.546Z,70.30
2018-03-07T12:37:01.060Z,81.60
2018-03-07T12:39:28.559Z,80.63
2018-03-07T12:41:56.111Z,80.30
2018-03-07T12:44:23.620Z,83.67
2018-03-07T12:46:51.124Z,82.40
2018-03-07T12:49:18.711Z,85.47
2018-03-07T12:51:46.247Z,85.37
2018-03-07T12:54:13.747Z,80.10
2018-03-07T12:56:41.507Z,81.30
2018-03-07T12:59:09.196Z,81.23
2018-03-07T13:01:36.768Z,78.83
2018-03-07T13:04:04.273Z,79.77
2018-03-07T13:06:32.608Z,80.90
2018-03-07T13:09:00.107Z,76.47
2018-03-07T13:11:27.621Z,76.03
2018-03-07T13:13:55.113Z,74.07
2018-03-07T13:16:22.652Z,73.67
2018-03-07T13:18:50.363Z,75.27
2018-03-07T13:21:17.864Z,74.30
2018-03-07T13:23:45.391Z,73.33
2018-03-07T13:26:12.888Z,74.47
2018-03-07T13:28:40.403Z,72.30
2018-03-07T13:31:07.971Z,73.90
2018-03-07T13:33:36.384Z,73.40
2018-03-07T13:36:04.024Z,69.47
2018-03-07T13:38:31.539Z,70.93
2018-03-07T13:40:59.348Z,70.50
2018-03-07T13:43:26.856Z,73.23
2018-03-07T13:45:54.518Z,70.23
2018-03-07T13:48:22.319Z,69.10
2018-03-07T13:50:50.083Z,69.50
2018-03-07T13:53:17.847Z,65.73
2018-03-07T13:55:45.355Z,65.17
2018-03-07T13:58:12.879Z,67.70
2018-03-07T14:00:40.501Z,70.00
2018-03-07T14:03:08.028Z,68.47
2018-03-07T14:05:35.530Z,69.03
2018-03-07T14:08:03.204Z,71.97
2018-03-07T14:10:30.963Z,73.20
2018-03-07T14:12:58.724Z,70.67
2018-03-07T14:15:26.232Z,68.70
2018-03-07T14:17:54.504Z,71.70
2018-03-07T14:20:22.023Z,66.30
2018-03-07T14:22:49.511Z,69.17
2018-03-07T14:25:17.248Z,67.13
2018-03-07T14:27:47.694Z,68.57
2018-03-07T14:30:15.355Z,70.00
2018-03-07T14:32:43.067Z,65.50
2018-03-07T14:35:10.719Z,71.10
2018-03-07T14:37:38.512Z,72.10
2018-03-07T14:40:06.081Z,69.73
2018-03-07T14:42:34.708Z,72.20
2018-03-07T14:45:02.176Z,68.40
2018-03-07T14:47:29.680Z,73.00
2018-03-07T14:49:57.340Z,69.23
2018-03-07T14:52:24.966Z,63.57
2018-03-07T14:54:52.467Z,68.00
2018-03-07T14:57:19.972Z,67.73
2018-03-07T14:59:47.492Z,65.33
2018-03-07T15:02:15.228Z,63.57
2018-03-07T15:04:42.755Z,68.23
2018-03-07T15:07:10.269Z,64.87
2018-03-07T15:09:37.784Z,68.83
2018-03-07T15:12:05.333Z,66.80
2018-03-07T15:14:33.441Z,61.27
2018-03-07T15:17:00.944Z,62.00
2018-03-07T15:19:28.825Z,64.77
2018-03-07T15:21:56.839Z,66.67
2018-03-07T15:24:24.498Z,64.00
2018-03-07T15:26:52.122Z,63.50
2018-03-07T15:29:19.679Z,63.37
2018-03-07T15:31:47.187Z,64.13
2018-03-07T15:34:14.755Z,64.07
2018-03-07T15:36:43.024Z,64.20
2018-03-07T15:39:10.578Z,64.30
2018-03-07T15:41:38.215Z,60.97
2018-03-07T15:44:05.720Z,56.80
2018-03-07T15:46:33.281Z,59.90
2018-03-07T15:49:01.566Z,63.27
2018-03-07T15:51:29.080Z,61.67
2018-03-07T15:53:56.593Z,59.97
2018-03-07T15:56:24.164Z,57.80
2018-03-07T15:58:51.656Z,60.17
2018-03-07T16:01:19.176Z,58.57
2018-03-07T16:03:46.820Z,60.10
2018-03-07T16:06:14.315Z,60.27
2018-03-07T16:08:42.530Z,59.20
2018-03-07T16:11:11.073Z,59.10
2018-03-07T16:13:38.836Z,60.67
2018-03-07T16:16:06.597Z,56.97
2018-03-07T16:18:34.207Z,59.00
2018-03-07T16:21:02.770Z,60.30
2018-03-07T16:23:30.274Z,57.30
2018-03-07T16:25:58.039Z,55.00
2018-03-07T16:28:25.789Z,56.30
2018-03-07T16:30:53.295Z,53.90
2018-03-07T16:33:20.805Z,57.40
2018-03-07T16:35:48.396Z,54.73
2018-03-07T16:38:15.904Z,54.50
2018-03-07T16:40:44.347Z,59.43
2018-03-07T16:43:11.853Z,59.50
2018-03-07T16:45:39.859Z,61.90
2018-03-07T16:48:07.377Z,60.30
2018-03-07T16:50:35.693Z,63.47
2018-03-07T16:53:03.198Z,60.53
2018-03-07T16:55:30.704Z,57.87
2018-03-07T16:57:58.220Z,58.60
2018-03-07T17:00:25.742Z,58.23
2018-03-07T17:02:53.251Z,52.90
2018-03-07T17:05:20.772Z,54.70
2018-03-07T17:07:48.291Z,54.17
2018-03-07T17:10:15.996Z,54.33
2018-03-07T17:12:43.714Z,55.43
2018-03-07T17:15:11.196Z,54.43
2018-03-07T17:17:38.748Z,56.13
2018-03-07T17:20:06.273Z,53.60
2018-03-07T17:22:33.788Z,54.17
2018-03-07T17:25:01.315Z,53.40
2018-03-07T17:27:28.832Z,53.97
2018-03-07T17:29:56.410Z,53.90
2018-03-07T17:32:24.195Z,55.30
2018-03-07T17:34:51.700Z,54.87
2018-03-07T17:37:19.604Z,55.77
2018-03-07T17:39:47.669Z,55.23
2018-03-07T17:42:15.359Z,52.80
2018-03-07T17:44:43.438Z,54.17
2018-03-07T17:47:11.819Z,51.90
2018-03-07T17:49:40.450Z,55.37
2018-03-07T17:52:08.164Z,55.47
2018-03-07T17:54:35.875Z,54.90
2018-03-07T17:57:04.523Z,53.33
2018-03-07T17:59:32.811Z,53.30
2018-03-07T18:02:01.103Z,53.73
2018-03-07T18:04:28.603Z,53.37
2018-03-07T18:06:56.300Z,51.17
2018-03-07T18:09:24.006Z,53.80
2018-03-07T18:11:51.555Z,50.70
2018-03-07T18:14:19.135Z,52.30
2018-03-07T18:16:46.647Z,50.20
2018-03-07T18:19:14.144Z,53.50
2018-03-07T18:21:41.955Z,51.30
2018-03-07T18:24:09.705Z,48.20
2018-03-07T18:26:38.188Z,46.40
2018-03-07T18:29:05.840Z,43.20
2018-03-07T18:31:33.372Z,43.90
2018-03-07T18:34:01.046Z,43.97
2018-03-07T18:36:28.587Z,44.70
2018-03-07T18:38:56.113Z,44.33
2018-03-07T18:41:23.688Z,44.70
2018-03-07T18:43:51.204Z,48.10
2018-03-07T18:46:18.824Z,46.50
2018-03-07T18:48:47.002Z,45.93
2018-03-07T18:51:14.513Z,44.20
2018-03-07T18:53:42.015Z,46.10
2018-03-07T18:56:09.713Z,46.77
2018-03-07T18:58:37.456Z,44.50
2018-03-07T19:01:04.955Z,45.73
2018-03-07T19:03:32.575Z,44.17
2018-03-07T19:06:00.136Z,44.53
2018-03-07T19:08:27.651Z,45.37
2018-03-07T19:10:55.371Z,43.43
2018-03-07T19:13:22.874Z,41.50
2018-03-07T19:15:55.075Z,43.50
2018-03-07T19:18:22.591Z,42.37
2018-03-07T19:20:50.116Z,42.50
2018-03-07T19:23:17.885Z,40.57
2018-03-07T19:25:46.095Z,41.73
2018-03-07T19:28:13.608Z,40.57
2018-03-07T19:30:41.095Z,45.37
2018-03-07T19:33:08.640Z,47.23
2018-03-07T19:35:36.392Z,45.30
2018-03-07T19:38:03.896Z,47.77
2018-03-07T19:40:31.454Z,43.47
2018-03-07T19:42:59.703Z,48.13
2018-03-07T19:45:27.440Z,48.27
2018-03-07T19:47:54.940Z,47.20
2018-03-07T19:50:22.650Z,46.60
2018-03-07T19:52:50.141Z,46.20
2018-03-07T19:55:17.892Z,48.17
2018-03-07T19:57:45.590Z,47.83
2018-03-07T20:00:13.161Z,47.60
2018-03-07T20:02:40.620Z,50.90
2018-03-07T20:05:08.133Z,47.87
2018-03-07T20:07:35.770Z,47.47
2018-03-07T20:10:03.290Z,47.57
2018-03-07T20:12:30.987Z,47.50
2018-03-07T20:14:58.488Z,48.70
2018-03-07T20:17:26.159Z,51.17
2018-03-07T20:19:53.674Z,52.33
2018-03-07T20:22:21.179Z,50.17
2018-03-07T20:24:48.875Z,48.67
2018-03-07T20:27:16.393Z,50.97
2018-03-07T20:29:44.060Z,50.43
2018-03-07T20:32:11.891Z,51.07
2018-03-07T20:34:39.388Z,51.17
2018-03-07T20:37:07.092Z,49.47
2018-03-07T20:39:34.596Z,48.33
2018-03-07T20:42:02.277Z,47.30
2018-03-07T20:44:30.587Z,49.00
2018-03-07T20:46:58.253Z,51.00
2018-03-07T20:49:26.856Z,49.17
2018-03-07T20:51:54.591Z,50.03
2018-03-07T20:54:22.100Z,50.63
2018-03-07T20:56:49.836Z,49.00
2018-03-07T20:59:17.339Z,48.90
2018-03-07T21:01:44.899Z,50.60
2018-03-07T21:04:12.380Z,51.50
2018-03-07T21:06:39.899Z,48.63
2018-03-07T21:09:07.391Z,52.07
2018-03-07T21:11:35.297Z,50.27
2018-03-07T21:14:02.800Z,50.43
2018-03-07T21:16:30.375Z,49.03
2018-03-07T21:18:58.149Z,51.37
2018-03-07T21:21:25.645Z,51.60
2018-03-07T21:23:53.979Z,50.27
2018-03-07T21:26:21.498Z,52.03
2018-03-07T21:28:49.524Z,51.97
2018-03-07T21:31:17.029Z,51.97
2018-03-07T21:33:44.527Z,51.07
2018-03-07T21:36:12.034Z,51.63
2018-03-07T21:38:40.555Z,53.13
2018-03-07T21:41:08.322Z,50.80
2018-03-07T21:43:35.826Z,51.43
2018-03-07T21:46:03.538Z,52.10
2018-03-07T21:48:31.320Z,50.87
2018-03-07T21:50:59.071Z,51.10
2018-03-07T21:53:26.579Z,55.60
2018-03-07T21:55:54.291Z,60.97
2018-03-07T21:58:21.799Z,56.63
2018-03-07T22:00:49.829Z,52.80
2018-03-07T22:03:17.323Z,52.33
2018-03-07T22:05:45.013Z,54.77
2018-03-07T22:08:12.724Z,53.40
2018-03-07T22:10:40.258Z,52.23
2018-03-07T22:13:08.020Z,55.40
2018-03-07T22:15:35.515Z,49.43
2018-03-07T22:18:03.033Z,52.20
2018-03-07T22:20:30.532Z,52.70
2018-03-07T22:22:58.792Z,48.80
2018-03-07T22:25:26.302Z,50.60
2018-03-07T22:27:53.975Z,52.93
2018-03-07T22:30:21.768Z,55.90
2018-03-07T22:32:49.264Z,53.93
2018-03-07T22:35:16.944Z,53.30
2018-03-07T22:37:44.444Z,54.20
2018-03-07T22:40:11.957Z,55.97
2018-03-07T22:42:39.564Z,56.03
2018-03-07T22:45:07.303Z,57.13
2018-03-07T22:47:34.803Z,56.90
2018-03-07T22:50:02.415Z,54.40
2018-03-07T22:52:30.091Z,55.40
2018-03-07T22:54:57.851Z,51.40
2018-03-07T22:57:25.623Z,53.27
2018-03-07T22:59:53.148Z,53.73
2018-03-07T23:02:20.797Z,48.87
2018-03-07T23:04:48.304Z,52.83
2018-03-07T23:07:15.815Z,50.37
2018-03-07T23:09:43.486Z,52.83
2018-03-07T23:12:11.276Z,53.23
2018-03-07T23:14:38.813Z,51.53
2018-03-07T23:17:06.500Z,48.63
2018-03-07T23:19:34.264Z,51.00
2018-03-07T23:22:02.025Z,51.87
2018-03-07T23:24:29.530Z,54.37
2018-03-07T23:26:57.032Z,52.47
2018-03-07T23:29:24.669Z,52.77
2018-03-07T23:31:52.187Z,49.33
2018-03-07T23:34:19.791Z,49.20
2018-03-07T23:36:47.302Z,51.67
2018-03-07T23:39:15.754Z,52.20
2018-03-07T23:41:43.263Z,51.60
2018-03-07T23:44:10.795Z,52.27
2018-03-07T23:46:38.435Z,50.97
2018-03-07T23:49:05.939Z,52.00
2018-03-07T23:51:33.652Z,54.90
2018-03-07T23:54:01.146Z,55.70
2018-03-07T23:56:28.848Z,54.40
2018-03-07T23:58:56.636Z,56.83
